Terminal Aerodrome Forecast
Issued by NWS Tuscon, AZ

Home | Current Version | Previous Version | Text Only | Print | Product List | Glossary On
Versions: 1 2 3 4 5 6 7 8 9 10 11 12 13 14 15 16
684
FTUS45 KTWC 292336
TAFDUG
TAF
KDUG 292336Z 3000/3024 36012KT P6SM FEW090
     FM300200 35007KT P6SM SKC
     FM301000 VRB04KT P6SM SKC
     FM301600 21010KT P6SM SKC
     FM301900 24019G29KT P6SM SKC=

USA.gov is the U.S. government's official web portal to all federal, state and local government web resources and services.